createdAt,value
2023-08-01T00:00:33.406Z,946.72
2023-08-01T00:01:33.456Z,946.75
2023-08-01T00:02:33.380Z,946.76
2023-08-01T00:03:33.396Z,946.74
2023-08-01T00:04:33.322Z,946.76
2023-08-01T00:05:33.345Z,946.79
2023-08-01T00:06:33.324Z,946.80
2023-08-01T00:07:35.789Z,946.79
2023-08-01T00:08:33.319Z,946.85
2023-08-01T00:09:33.243Z,946.85
2023-08-01T00:10:33.233Z,946.89
2023-08-01T00:11:33.218Z,946.89
2023-08-01T00:12:33.221Z,946.90
2023-08-01T00:13:33.212Z,946.91
2023-08-01T00:14:33.200Z,946.90
2023-08-01T00:15:33.151Z,946.89
2023-08-01T00:16:33.190Z,946.82
2023-08-01T00:17:33.228Z,946.81
2023-08-01T00:18:33.127Z,946.82
2023-08-01T00:19:33.171Z,946.85
2023-08-01T00:20:33.098Z,946.81
2023-08-01T00:21:33.093Z,946.80
2023-08-01T00:22:33.056Z,946.82
2023-08-01T00:23:33.071Z,946.81
2023-08-01T00:24:33.064Z,946.83
2023-08-01T00:25:33.056Z,946.98
2023-08-01T00:26:33.020Z,947.03
2023-08-01T00:27:40.390Z,947.06
2023-08-01T00:28:33.032Z,947.04
2023-08-01T00:29:32.968Z,947.00
2023-08-01T00:30:32.985Z,946.91
2023-08-01T00:31:32.963Z,946.88
2023-08-01T00:32:32.961Z,946.86
2023-08-01T00:33:32.921Z,946.92
2023-08-01T00:34:32.920Z,946.97
2023-08-01T00:35:32.913Z,946.98
2023-08-01T00:36:32.911Z,947.05
2023-08-01T00:37:32.886Z,947.04
2023-08-01T00:38:32.846Z,947.00
2023-08-01T00:39:32.834Z,946.93
2023-08-01T00:40:32.810Z,946.88
2023-08-01T00:41:32.810Z,946.86
2023-08-01T00:42:32.817Z,946.80
2023-08-01T00:43:32.936Z,946.74
2023-08-01T00:44:32.764Z,946.74
2023-08-01T00:45:32.801Z,946.76
2023-08-01T00:46:32.742Z,946.74
2023-08-01T00:47:32.779Z,946.73
2023-08-01T00:48:32.749Z,946.73
2023-08-01T00:49:34.392Z,946.74
2023-08-01T00:50:32.676Z,946.64
2023-08-01T00:51:32.705Z,946.59
2023-08-01T00:52:32.650Z,946.56
2023-08-01T00:53:32.649Z,946.55
2023-08-01T00:54:32.646Z,946.59
2023-08-01T00:55:32.621Z,946.60
2023-08-01T00:56:32.612Z,946.51
2023-08-01T00:57:32.590Z,946.46
2023-08-01T00:58:32.591Z,946.46
2023-08-01T00:59:32.580Z,946.43
2023-08-01T01:00:32.539Z,946.45
2023-08-01T01:01:32.592Z,946.45
2023-08-01T01:02:32.698Z,946.37
2023-08-01T01:03:32.588Z,946.34
2023-08-01T01:04:32.497Z,946.32
2023-08-01T01:05:32.542Z,946.26
2023-08-01T01:06:32.470Z,946.26
2023-08-01T01:07:32.458Z,946.35
2023-08-01T01:08:32.521Z,946.40
2023-08-01T01:09:32.427Z,946.48
2023-08-01T01:10:32.433Z,946.47
2023-08-01T01:11:32.436Z,946.41
2023-08-01T01:12:32.417Z,946.34
2023-08-01T01:13:32.478Z,946.37
2023-08-01T01:14:32.381Z,946.42
2023-08-01T01:15:32.359Z,946.34
2023-08-01T01:16:32.350Z,946.38
2023-08-01T01:17:32.418Z,946.34
2023-08-01T01:18:32.312Z,946.34
2023-08-01T01:19:32.284Z,946.28
2023-08-01T01:20:32.268Z,946.19
2023-08-01T01:21:32.258Z,946.22
2023-08-01T01:22:32.271Z,946.31
2023-08-01T01:23:32.252Z,946.32
2023-08-01T01:24:32.222Z,946.34
2023-08-01T01:25:32.197Z,946.35
2023-08-01T01:26:32.189Z,946.36
2023-08-01T01:27:32.175Z,946.35
2023-08-01T01:28:32.209Z,946.28
2023-08-01T01:29:32.187Z,946.25
2023-08-01T01:30:32.140Z,946.18
2023-08-01T01:31:32.165Z,946.17
2023-08-01T01:32:32.144Z,946.14
2023-08-01T01:33:32.120Z,946.12
2023-08-01T01:34:32.116Z,946.10
2023-08-01T01:35:32.073Z,946.08
2023-08-01T01:36:32.052Z,946.04
2023-08-01T01:37:32.036Z,946.05
2023-08-01T01:38:32.037Z,946.06
2023-08-01T01:39:32.026Z,946.06
2023-08-01T01:40:32.020Z,946.07
2023-08-01T01:41:31.981Z,946.04
2023-08-01T01:42:31.997Z,946.11
2023-08-01T01:43:31.955Z,946.11
2023-08-01T01:44:31.954Z,946.13
2023-08-01T01:45:31.934Z,946.10
2023-08-01T01:46:31.969Z,946.02
2023-08-01T01:47:31.949Z,945.93
2023-08-01T01:48:31.888Z,945.89
2023-08-01T01:49:31.903Z,945.88
2023-08-01T01:50:31.866Z,945.87
2023-08-01T01:51:31.868Z,945.85
2023-08-01T01:52:31.908Z,945.89
2023-08-01T01:53:31.820Z,945.93
2023-08-01T01:54:31.807Z,945.89
2023-08-01T01:55:31.811Z,945.96
2023-08-01T01:56:31.779Z,945.91
2023-08-01T01:57:31.793Z,945.88
2023-08-01T01:58:31.743Z,945.81
2023-08-01T01:59:31.745Z,945.73
2023-08-01T02:00:31.746Z,945.68
2023-08-01T02:01:31.702Z,945.67
2023-08-01T02:02:31.753Z,945.69
2023-08-01T02:03:31.709Z,945.73
2023-08-01T02:04:31.723Z,945.79
2023-08-01T02:05:31.724Z,945.81
2023-08-01T02:06:31.640Z,945.77
2023-08-01T02:07:31.641Z,945.73
2023-08-01T02:08:31.641Z,945.71
2023-08-01T02:09:31.594Z,945.59
2023-08-01T02:10:31.593Z,945.61
2023-08-01T02:11:31.564Z,945.62
2023-08-01T02:12:31.557Z,945.65
2023-08-01T02:13:32.645Z,945.70
2023-08-01T02:14:31.564Z,945.74
2023-08-01T02:15:31.536Z,945.79
2023-08-01T02:16:31.518Z,945.83
2023-08-01T02:17:31.513Z,945.81
2023-08-01T02:18:31.482Z,945.82
2023-08-01T02:19:31.468Z,945.76
2023-08-01T02:20:31.488Z,945.73
2023-08-01T02:21:31.433Z,945.73
2023-08-01T02:22:31.412Z,945.74
2023-08-01T02:23:31.461Z,945.81
2023-08-01T02:24:31.397Z,945.83
2023-08-01T02:25:31.382Z,945.84
2023-08-01T02:26:31.414Z,945.78
2023-08-01T02:27:31.366Z,945.75
2023-08-01T02:28:31.368Z,945.67
2023-08-01T02:29:31.351Z,945.66
2023-08-01T02:30:31.301Z,945.59
2023-08-01T02:31:31.328Z,945.52
2023-08-01T02:32:31.662Z,945.51
2023-08-01T02:33:31.359Z,945.47
2023-08-01T02:34:31.833Z,945.49
2023-08-01T02:35:31.237Z,945.53
2023-08-01T02:36:31.237Z,945.48
2023-08-01T02:37:31.293Z,945.49
2023-08-01T02:38:31.210Z,945.52
2023-08-01T02:39:31.176Z,945.49
2023-08-01T02:40:31.163Z,945.50
2023-08-01T02:41:31.176Z,945.44
2023-08-01T02:42:31.135Z,945.37
2023-08-01T02:43:31.172Z,945.34
2023-08-01T02:44:31.112Z,945.35
2023-08-01T02:45:31.137Z,945.37
2023-08-01T02:46:31.081Z,945.34
2023-08-01T02:47:31.075Z,945.32
2023-08-01T02:48:31.068Z,945.23
2023-08-01T02:49:31.086Z,945.19
2023-08-01T02:50:31.045Z,945.13
2023-08-01T02:51:31.018Z,945.12
2023-08-01T02:52:31.016Z,945.13
2023-08-01T02:53:31.003Z,945.18
2023-08-01T02:54:30.968Z,945.21
2023-08-01T02:55:30.998Z,945.19
2023-08-01T02:56:30.935Z,945.12
2023-08-01T02:57:30.924Z,945.13
2023-08-01T02:58:30.916Z,945.13
2023-08-01T02:59:30.910Z,945.12
2023-08-01T03:00:30.886Z,945.11
2023-08-01T03:01:30.957Z,945.11
2023-08-01T03:02:30.896Z,945.09
2023-08-01T03:03:30.947Z,945.12
2023-08-01T03:04:45.182Z,945.09
2023-08-01T03:05:30.857Z,945.12
2023-08-01T03:06:30.808Z,945.12
2023-08-01T03:07:30.840Z,945.06
2023-08-01T03:08:30.792Z,945.02
2023-08-01T03:09:30.783Z,944.91
2023-08-01T03:10:36.328Z,944.82
2023-08-01T03:11:30.734Z,944.77
2023-08-01T03:12:30.749Z,944.74
2023-08-01T03:13:30.755Z,944.66
2023-08-01T03:14:30.712Z,944.68
2023-08-01T03:15:30.693Z,944.72
2023-08-01T03:16:30.677Z,944.71
2023-08-01T03:17:30.712Z,944.72
2023-08-01T03:18:30.646Z,944.73
2023-08-01T03:19:30.660Z,944.71
2023-08-01T03:20:30.629Z,944.68
2023-08-01T03:21:30.692Z,944.66
2023-08-01T03:22:30.597Z,944.63
2023-08-01T03:23:30.584Z,944.61
2023-08-01T03:24:30.616Z,944.61
2023-08-01T03:25:30.556Z,944.61
2023-08-01T03:26:30.534Z,944.53
2023-08-01T03:27:30.530Z,944.45
2023-08-01T03:28:30.512Z,944.43
2023-08-01T03:29:30.492Z,944.44
2023-08-01T03:30:30.517Z,944.47
2023-08-01T03:31:30.560Z,944.54
2023-08-01T03:32:30.498Z,944.57
2023-08-01T03:33:30.450Z,944.57
2023-08-01T03:34:30.550Z,944.57
2023-08-01T03:35:30.420Z,944.59
2023-08-01T03:36:30.464Z,944.59
2023-08-01T03:37:30.406Z,944.57
2023-08-01T03:38:30.373Z,944.57
2023-08-01T03:39:30.353Z,944.59
2023-08-01T03:40:30.363Z,944.62
2023-08-01T03:41:30.385Z,944.66
2023-08-01T03:42:30.353Z,944.68
2023-08-01T03:43:30.310Z,944.69
2023-08-01T03:44:30.289Z,944.66
2023-08-01T03:45:30.306Z,944.66
2023-08-01T03:46:30.251Z,944.64
2023-08-01T03:47:30.303Z,944.61
2023-08-01T03:48:30.230Z,944.62
2023-08-01T03:49:30.211Z,944.57
2023-08-01T03:50:30.215Z,944.54
2023-08-01T03:51:30.184Z,944.49
2023-08-01T03:52:30.182Z,944.45
2023-08-01T03:53:30.216Z,944.47
2023-08-01T03:54:30.168Z,944.50
2023-08-01T03:55:30.172Z,944.50
2023-08-01T03:56:30.162Z,944.55
2023-08-01T03:57:30.181Z,944.55
2023-08-01T03:58:30.135Z,944.61
2023-08-01T03:59:30.094Z,944.65
2023-08-01T04:00:30.064Z,944.55
2023-08-01T04:01:30.135Z,944.57
2023-08-01T04:02:30.092Z,944.54
2023-08-01T04:03:30.038Z,944.53
2023-08-01T04:04:30.047Z,944.58
2023-08-01T04:05:30.032Z,944.56
2023-08-01T04:06:30.002Z,944.55
2023-08-01T04:07:29.978Z,944.54
2023-08-01T04:08:29.960Z,944.64
2023-08-01T04:09:29.944Z,944.70
2023-08-01T04:10:29.948Z,944.79
2023-08-01T04:11:29.929Z,944.88
2023-08-01T04:12:29.912Z,944.89
2023-08-01T04:13:29.890Z,944.91
2023-08-01T04:14:29.863Z,944.90
2023-08-01T04:15:29.953Z,944.92
2023-08-01T04:16:29.846Z,944.97
2023-08-01T04:17:29.863Z,944.98
2023-08-01T04:18:29.828Z,944.91
2023-08-01T04:19:29.805Z,944.87
2023-08-01T04:20:29.799Z,944.87
2023-08-01T04:21:29.824Z,944.90
2023-08-01T04:22:29.770Z,944.78
2023-08-01T04:23:29.765Z,944.71
2023-08-01T04:24:29.754Z,944.61
2023-08-01T04:25:29.720Z,944.57
2023-08-01T04:26:29.717Z,944.63
2023-08-01T04:27:29.767Z,944.61
2023-08-01T04:28:29.753Z,944.68
2023-08-01T04:29:29.711Z,944.60
2023-08-01T04:30:29.676Z,944.59
2023-08-01T04:31:29.727Z,944.63
2023-08-01T04:32:29.691Z,944.60
2023-08-01T04:33:29.640Z,944.53
2023-08-01T04:34:29.597Z,944.50
2023-08-01T04:35:29.600Z,944.53
2023-08-01T04:36:29.564Z,944.51
2023-08-01T04:37:29.561Z,944.51
2023-08-01T04:38:29.584Z,944.63
2023-08-01T04:39:29.586Z,944.56
2023-08-01T04:40:29.522Z,944.49
2023-08-01T04:41:29.504Z,944.54
2023-08-01T04:42:29.488Z,944.56
2023-08-01T04:43:29.474Z,944.61
2023-08-01T04:44:29.506Z,944.66
2023-08-01T04:45:29.477Z,944.64
2023-08-01T04:46:29.494Z,944.68
2023-08-01T04:47:29.467Z,944.68
2023-08-01T04:48:29.420Z,944.71
2023-08-01T04:49:29.412Z,944.75
2023-08-01T04:50:29.407Z,944.79
2023-08-01T04:51:29.376Z,944.90
2023-08-01T04:52:29.352Z,944.89
2023-08-01T04:53:29.343Z,944.89
2023-08-01T04:54:29.325Z,944.88
2023-08-01T04:55:29.316Z,944.87
2023-08-01T04:56:29.339Z,944.78
2023-08-01T04:57:29.282Z,944.75
2023-08-01T04:58:29.265Z,944.78
2023-08-01T04:59:29.330Z,944.73
2023-08-01T05:00:29.276Z,944.76
2023-08-01T05:01:29.264Z,944.78
2023-08-01T05:02:29.268Z,944.83
2023-08-01T05:03:29.321Z,944.80
2023-08-01T05:04:29.186Z,944.83
2023-08-01T05:05:29.171Z,944.84
2023-08-01T05:06:29.229Z,944.81
2023-08-01T05:07:29.196Z,944.82
2023-08-01T05:08:29.152Z,944.82
2023-08-01T05:09:29.145Z,944.85
2023-08-01T05:10:29.107Z,944.88
2023-08-01T05:11:29.100Z,944.97
2023-08-01T05:12:29.118Z,944.94
2023-08-01T05:13:29.133Z,944.94
2023-08-01T05:14:29.078Z,944.99
2023-08-01T05:15:31.616Z,944.95
2023-08-01T05:16:29.082Z,944.97
2023-08-01T05:17:29.022Z,944.96
2023-08-01T05:18:29.013Z,944.93
2023-08-01T05:19:29.012Z,944.93
2023-08-01T05:20:28.998Z,944.94
2023-08-01T05:21:28.959Z,944.94
2023-08-01T05:22:28.952Z,944.96
2023-08-01T05:23:28.980Z,944.96
2023-08-01T05:24:28.945Z,944.99
2023-08-01T05:25:28.904Z,945.05
2023-08-01T05:26:28.898Z,945.06
2023-08-01T05:27:28.895Z,945.06
2023-08-01T05:28:28.941Z,945.05
2023-08-01T05:29:28.910Z,945.01
2023-08-01T05:30:28.847Z,945.01
2023-08-01T05:31:28.883Z,945.00
2023-08-01T05:32:28.827Z,945.02
2023-08-01T05:33:28.797Z,945.03
2023-08-01T05:34:28.798Z,945.05
2023-08-01T05:35:28.848Z,945.06
2023-08-01T05:36:28.760Z,945.04
2023-08-01T05:37:28.761Z,945.01
2023-08-01T05:38:28.756Z,944.96
2023-08-01T05:39:28.794Z,944.96
2023-08-01T05:40:28.701Z,945.02
2023-08-01T05:41:28.712Z,945.06
2023-08-01T05:42:28.662Z,945.02
2023-08-01T05:43:28.665Z,945.00
2023-08-01T05:44:28.653Z,944.96
2023-08-01T05:45:28.664Z,944.94
2023-08-01T05:46:28.695Z,945.00
2023-08-01T05:47:28.709Z,944.99
2023-08-01T05:48:28.600Z,945.07
2023-08-01T05:49:28.587Z,945.11
2023-08-01T05:50:28.553Z,945.08
2023-08-01T05:51:28.575Z,945.07
2023-08-01T05:52:28.627Z,945.01
2023-08-01T05:53:28.556Z,945.08
2023-08-01T05:54:28.525Z,945.09
2023-08-01T05:55:28.531Z,945.14
2023-08-01T05:56:28.528Z,945.16
2023-08-01T05:57:28.525Z,945.13
2023-08-01T05:58:29.894Z,945.09
2023-08-01T05:59:28.480Z,945.02
2023-08-01T06:00:28.430Z,944.98
2023-08-01T06:01:28.468Z,944.97
2023-08-01T06:02:28.492Z,944.98
2023-08-01T06:03:28.637Z,945.05
2023-08-01T06:04:28.428Z,945.03
2023-08-01T06:05:28.361Z,945.05
2023-08-01T06:06:28.391Z,945.03
2023-08-01T06:07:28.337Z,944.96
2023-08-01T06:08:28.353Z,944.97
2023-08-01T06:09:28.308Z,945.01
2023-08-01T06:10:28.375Z,945.02
2023-08-01T06:11:28.293Z,945.01
2023-08-01T06:12:28.277Z,945.03
2023-08-01T06:13:28.255Z,945.06
2023-08-01T06:14:28.263Z,945.02
2023-08-01T06:15:28.220Z,944.96
2023-08-01T06:16:28.459Z,944.93
2023-08-01T06:17:28.229Z,944.83
2023-08-01T06:18:28.193Z,944.85
2023-08-01T06:19:28.194Z,944.84
2023-08-01T06:20:28.238Z,944.88
2023-08-01T06:21:28.172Z,944.90
2023-08-01T06:22:28.149Z,944.91
2023-08-01T06:23:28.121Z,944.91
2023-08-01T06:24:28.206Z,944.96
2023-08-01T06:25:28.163Z,944.94
2023-08-01T06:26:28.068Z,944.95
2023-08-01T06:27:28.044Z,945.04
2023-08-01T06:28:28.104Z,945.06
2023-08-01T06:29:28.034Z,945.10
2023-08-01T06:30:28.069Z,945.18
2023-08-01T06:31:28.019Z,945.21
2023-08-01T06:32:27.989Z,945.24
2023-08-01T06:33:27.982Z,945.18
2023-08-01T06:34:27.970Z,945.13
2023-08-01T06:35:27.936Z,945.07
2023-08-01T06:36:27.983Z,945.00
2023-08-01T06:37:27.934Z,944.99
2023-08-01T06:38:27.911Z,945.12
2023-08-01T06:39:27.886Z,945.18
2023-08-01T06:40:27.890Z,945.30
2023-08-01T06:41:27.865Z,945.23
2023-08-01T06:42:27.956Z,945.13
2023-08-01T06:43:27.857Z,945.02
2023-08-01T06:44:27.862Z,944.95
2023-08-01T06:45:27.817Z,944.92
2023-08-01T06:46:27.850Z,944.87
2023-08-01T06:47:27.840Z,944.83
2023-08-01T06:48:27.786Z,944.80
2023-08-01T06:49:27.761Z,944.78
2023-08-01T06:50:27.774Z,944.77
2023-08-01T06:51:27.735Z,944.76
2023-08-01T06:52:27.745Z,944.74
2023-08-01T06:53:27.915Z,944.73
2023-08-01T06:54:27.717Z,944.71
2023-08-01T06:55:27.686Z,944.65
2023-08-01T06:56:27.658Z,944.57
2023-08-01T06:57:27.752Z,944.59
2023-08-01T06:58:27.674Z,944.55
2023-08-01T06:59:27.633Z,944.47
2023-08-01T07:00:27.639Z,944.47
2023-08-01T07:01:27.636Z,944.46
2023-08-01T07:02:27.600Z,944.42
2023-08-01T07:03:27.674Z,944.43
2023-08-01T07:04:27.587Z,944.43
2023-08-01T07:05:27.552Z,944.44
2023-08-01T07:06:27.528Z,944.39
2023-08-01T07:07:27.525Z,944.46
2023-08-01T07:08:27.512Z,944.41
2023-08-01T07:09:27.490Z,944.41
2023-08-01T07:10:27.504Z,944.46
2023-08-01T07:11:27.489Z,944.41
2023-08-01T07:12:27.492Z,944.43
2023-08-01T07:13:27.430Z,944.31
2023-08-01T07:14:27.435Z,944.24
2023-08-01T07:15:27.387Z,944.22
2023-08-01T07:16:27.465Z,944.18
2023-08-01T07:17:27.406Z,944.21
2023-08-01T07:18:27.371Z,944.24
2023-08-01T07:19:27.348Z,944.23
2023-08-01T07:20:27.336Z,944.32
2023-08-01T07:21:27.382Z,944.37
2023-08-01T07:22:27.326Z,944.33
2023-08-01T07:23:27.325Z,944.37
2023-08-01T07:24:29.314Z,944.35
2023-08-01T07:25:27.254Z,944.33
2023-08-01T07:26:27.257Z,944.34
2023-08-01T07:27:27.283Z,944.28
2023-08-01T07:28:27.283Z,944.28
2023-08-01T07:29:27.344Z,944.29
2023-08-01T07:30:27.218Z,944.28
2023-08-01T07:31:27.188Z,944.30
2023-08-01T07:32:27.206Z,944.31
2023-08-01T07:33:27.180Z,944.28
2023-08-01T07:34:27.176Z,944.31
2023-08-01T07:35:27.127Z,944.30
2023-08-01T07:36:27.097Z,944.31
2023-08-01T07:37:27.110Z,944.34
2023-08-01T07:38:27.098Z,944.33
2023-08-01T07:39:27.107Z,944.29
2023-08-01T07:40:27.055Z,944.20
2023-08-01T07:41:27.081Z,944.22
2023-08-01T07:42:27.049Z,944.28
2023-08-01T07:43:27.020Z,944.31
2023-08-01T07:44:27.006Z,944.35
2023-08-01T07:45:27.029Z,944.38
2023-08-01T07:46:27.003Z,944.36
2023-08-01T07:47:27.030Z,944.35
2023-08-01T07:48:27.064Z,944.38
2023-08-01T07:49:26.935Z,944.34
2023-08-01T07:50:26.971Z,944.27
2023-08-01T07:51:26.932Z,944.27
2023-08-01T07:52:26.910Z,944.23
2023-08-01T07:53:26.893Z,944.22
2023-08-01T07:54:26.918Z,944.26
2023-08-01T07:55:26.849Z,944.23
2023-08-01T07:56:26.858Z,944.26
2023-08-01T07:57:26.861Z,944.21
2023-08-01T07:58:26.808Z,944.28
2023-08-01T07:59:26.793Z,944.26
2023-08-01T08:00:26.778Z,944.23
2023-08-01T08:01:26.804Z,944.17
2023-08-01T08:02:26.765Z,944.18
2023-08-01T08:03:26.769Z,944.28
2023-08-01T08:04:26.732Z,944.30
2023-08-01T08:05:26.737Z,944.33
2023-08-01T08:06:26.699Z,944.35
2023-08-01T08:07:26.706Z,944.35
2023-08-01T08:08:26.667Z,944.31
2023-08-01T08:09:26.700Z,944.30
2023-08-01T08:10:26.648Z,944.25
2023-08-01T08:11:26.645Z,944.25
2023-08-01T08:12:26.653Z,944.26
2023-08-01T08:13:26.599Z,944.21
2023-08-01T08:14:26.602Z,944.25
2023-08-01T08:15:26.590Z,944.21
2023-08-01T08:16:26.675Z,944.14
2023-08-01T08:17:26.547Z,944.15
2023-08-01T08:18:26.544Z,944.09
2023-08-01T08:19:26.516Z,944.06
2023-08-01T08:20:26.552Z,944.03
2023-08-01T08:21:26.562Z,944.00
2023-08-01T08:22:26.474Z,944.03
2023-08-01T08:23:26.476Z,944.06
2023-08-01T08:24:26.481Z,944.11
2023-08-01T08:25:26.522Z,944.05
2023-08-01T08:26:26.439Z,944.10
2023-08-01T08:27:26.421Z,944.07
2023-08-01T08:28:26.537Z,944.03
2023-08-01T08:29:26.389Z,944.08
2023-08-01T08:30:26.374Z,944.11
2023-08-01T08:31:26.406Z,944.07
2023-08-01T08:32:26.437Z,944.08
2023-08-01T08:33:26.368Z,944.01
2023-08-01T08:34:26.314Z,943.99
2023-08-01T08:35:26.310Z,943.91
2023-08-01T08:36:26.321Z,943.89
2023-08-01T08:37:26.293Z,943.92
2023-08-01T08:38:26.302Z,943.88
2023-08-01T08:39:26.274Z,943.83
2023-08-01T08:40:26.235Z,943.91
2023-08-01T08:41:26.214Z,943.87
2023-08-01T08:42:26.222Z,943.79
2023-08-01T08:43:26.197Z,943.86
2023-08-01T08:44:26.228Z,943.89
2023-08-01T08:45:26.241Z,943.92
2023-08-01T08:46:26.184Z,944.02
2023-08-01T08:47:26.171Z,944.02
2023-08-01T08:48:26.156Z,943.99
2023-08-01T08:49:26.138Z,943.94
2023-08-01T08:50:26.172Z,943.93
2023-08-01T08:51:27.089Z,943.91
2023-08-01T08:52:26.110Z,943.99
2023-08-01T08:53:26.057Z,944.06
2023-08-01T08:54:26.076Z,944.10
2023-08-01T08:55:26.041Z,944.10
2023-08-01T08:56:26.095Z,944.10
2023-08-01T08:57:26.015Z,944.04
2023-08-01T08:58:26.015Z,944.03
2023-08-01T08:59:25.968Z,944.00
2023-08-01T09:00:25.984Z,944.01
2023-08-01T09:01:25.988Z,944.05
2023-08-01T09:02:25.962Z,944.08
2023-08-01T09:03:25.929Z,944.05
2023-08-01T09:04:25.962Z,944.03
2023-08-01T09:05:25.922Z,943.97
2023-08-01T09:06:25.895Z,943.95
2023-08-01T09:07:25.945Z,943.90
2023-08-01T09:08:25.849Z,943.89
2023-08-01T09:09:25.847Z,943.83
2023-08-01T09:10:25.826Z,943.80
2023-08-01T09:11:25.824Z,943.70
2023-08-01T09:12:25.810Z,943.66
2023-08-01T09:13:25.833Z,943.65
2023-08-01T09:14:25.762Z,943.66
2023-08-01T09:15:25.769Z,943.63
2023-08-01T09:16:25.769Z,943.60
2023-08-01T09:17:25.794Z,943.56
2023-08-01T09:18:25.719Z,943.63
2023-08-01T09:19:25.735Z,943.58
2023-08-01T09:20:25.698Z,943.61
2023-08-01T09:21:25.701Z,943.51
2023-08-01T09:22:25.681Z,943.54
2023-08-01T09:23:25.654Z,943.58
2023-08-01T09:24:25.646Z,943.60
2023-08-01T09:25:25.654Z,943.55
2023-08-01T09:26:25.616Z,943.52
2023-08-01T09:27:25.599Z,943.44
2023-08-01T09:28:25.593Z,943.37
2023-08-01T09:29:25.601Z,943.31
2023-08-01T09:30:25.560Z,943.22
2023-08-01T09:31:25.611Z,943.22
2023-08-01T09:32:25.544Z,943.19
2023-08-01T09:33:25.545Z,943.26
2023-08-01T09:34:25.528Z,943.29
2023-08-01T09:35:25.516Z,943.27
2023-08-01T09:36:25.477Z,943.21
2023-08-01T09:37:25.465Z,943.18
2023-08-01T09:38:25.437Z,943.19
2023-08-01T09:39:25.433Z,943.19
2023-08-01T09:40:25.418Z,943.17
2023-08-01T09:41:25.433Z,943.21
2023-08-01T09:42:25.379Z,943.22
2023-08-01T09:43:25.373Z,943.25
2023-08-01T09:44:25.350Z,943.31
2023-08-01T09:45:25.352Z,943.29
2023-08-01T09:46:25.342Z,943.33
2023-08-01T09:47:25.475Z,943.36
2023-08-01T09:48:25.310Z,943.38
2023-08-01T09:49:25.292Z,943.40
2023-08-01T09:50:25.283Z,943.37
2023-08-01T09:51:25.273Z,943.41
2023-08-01T09:52:25.270Z,943.38
2023-08-01T09:53:25.296Z,943.32
2023-08-01T09:54:25.320Z,943.37
2023-08-01T09:55:25.218Z,943.43
2023-08-01T09:56:25.180Z,943.46
2023-08-01T09:57:25.184Z,943.52
2023-08-01T09:58:25.190Z,943.56
2023-08-01T09:59:25.167Z,943.60
2023-08-01T10:00:25.160Z,943.61
2023-08-01T10:01:25.195Z,943.59
2023-08-01T10:02:25.162Z,943.57
2023-08-01T10:03:25.176Z,943.45
2023-08-01T10:04:25.105Z,943.40
2023-08-01T10:05:25.070Z,943.31
2023-08-01T10:06:25.061Z,943.38
2023-08-01T10:07:25.045Z,943.43
2023-08-01T10:08:25.071Z,943.34
2023-08-01T10:09:25.022Z,943.24
2023-08-01T10:10:25.028Z,943.23
2023-08-01T10:11:24.996Z,943.22
2023-08-01T10:12:24.975Z,943.17
2023-08-01T10:13:24.958Z,943.20
2023-08-01T10:14:24.938Z,943.19
2023-08-01T10:15:25.078Z,943.19
2023-08-01T10:16:24.972Z,943.19
2023-08-01T10:17:24.954Z,943.19
2023-08-01T10:18:24.943Z,943.25
2023-08-01T10:19:24.881Z,943.30
2023-08-01T10:20:24.875Z,943.26
2023-08-01T10:21:24.878Z,943.39
2023-08-01T10:22:24.841Z,943.46
2023-08-01T10:23:24.819Z,943.46
2023-08-01T10:24:24.831Z,943.47
2023-08-01T10:25:24.782Z,943.31
2023-08-01T10:26:24.782Z,943.20
2023-08-01T10:27:25.176Z,943.05
2023-08-01T10:28:24.760Z,943.07
2023-08-01T10:29:24.776Z,943.08
2023-08-01T10:30:24.741Z,943.10
2023-08-01T10:31:24.738Z,943.14
2023-08-01T10:32:24.708Z,943.10
2023-08-01T10:33:24.722Z,943.17
2023-08-01T10:34:24.673Z,943.18
2023-08-01T10:35:24.728Z,943.12
2023-08-01T10:36:24.640Z,943.18
2023-08-01T10:37:24.657Z,943.23
2023-08-01T10:38:24.650Z,943.31
2023-08-01T10:39:24.673Z,943.29
2023-08-01T10:40:24.585Z,943.29
2023-08-01T10:41:24.564Z,943.28
2023-08-01T10:42:24.551Z,943.25
2023-08-01T10:43:24.538Z,943.26
2023-08-01T10:44:24.528Z,943.24
2023-08-01T10:45:24.562Z,943.24
2023-08-01T10:46:24.545Z,943.26
2023-08-01T10:47:24.499Z,943.23
2023-08-01T10:48:24.471Z,943.22
2023-08-01T10:49:24.478Z,943.19
2023-08-01T10:50:24.456Z,943.18
2023-08-01T10:51:24.462Z,943.20
2023-08-01T10:52:24.449Z,943.31
2023-08-01T10:53:24.409Z,943.32
2023-08-01T10:54:24.470Z,943.32
2023-08-01T10:55:24.388Z,943.30
2023-08-01T10:56:24.356Z,943.29
2023-08-01T10:57:24.427Z,943.25
2023-08-01T10:58:24.326Z,943.22
2023-08-01T10:59:24.331Z,943.22
2023-08-01T11:00:24.316Z,943.28
2023-08-01T11:01:24.320Z,943.30
2023-08-01T11:02:24.352Z,943.34
2023-08-01T11:03:24.333Z,943.31
2023-08-01T11:04:24.271Z,943.28
2023-08-01T11:05:24.273Z,943.24
2023-08-01T11:06:24.228Z,943.28
2023-08-01T11:07:24.261Z,943.36
2023-08-01T11:08:24.206Z,943.37
2023-08-01T11:09:24.200Z,943.37
2023-08-01T11:10:24.188Z,943.34
2023-08-01T11:11:24.183Z,943.38
2023-08-01T11:12:24.139Z,943.39
2023-08-01T11:13:24.171Z,943.42
2023-08-01T11:14:24.153Z,943.44
2023-08-01T11:15:24.110Z,943.45
2023-08-01T11:16:24.110Z,943.52
2023-08-01T11:17:24.168Z,943.54
2023-08-01T11:18:24.064Z,943.53
2023-08-01T11:19:24.078Z,943.57
2023-08-01T11:20:24.047Z,943.55
2023-08-01T11:21:24.035Z,943.60
2023-08-01T11:22:24.015Z,943.58
2023-08-01T11:23:23.991Z,943.58
2023-08-01T11:24:23.968Z,943.54
2023-08-01T11:25:23.985Z,943.52
2023-08-01T11:26:23.964Z,943.54
2023-08-01T11:27:23.990Z,943.51
2023-08-01T11:28:24.039Z,943.55
2023-08-01T11:29:23.913Z,943.59
2023-08-01T11:30:23.911Z,943.61
2023-08-01T11:31:23.941Z,943.61
2023-08-01T11:32:23.905Z,943.59
2023-08-01T11:33:23.893Z,943.56
2023-08-01T11:34:23.850Z,943.54
2023-08-01T11:35:23.849Z,943.55
2023-08-01T11:36:23.815Z,943.45
2023-08-01T11:37:23.864Z,943.52
2023-08-01T11:38:23.795Z,943.51
2023-08-01T11:39:23.938Z,943.53
2023-08-01T11:40:23.756Z,943.49
2023-08-01T11:41:23.744Z,943.50
2023-08-01T11:42:23.734Z,943.46
2023-08-01T11:43:23.762Z,943.50
2023-08-01T11:44:23.708Z,943.51
2023-08-01T11:45:23.715Z,943.60
2023-08-01T11:46:23.701Z,943.69
2023-08-01T11:47:23.692Z,943.71
2023-08-01T11:48:23.662Z,943.80
2023-08-01T11:49:23.675Z,943.89
2023-08-01T11:50:23.638Z,943.99
2023-08-01T11:51:25.232Z,943.97
2023-08-01T11:52:23.596Z,943.94
2023-08-01T11:53:23.636Z,943.86
2023-08-01T11:54:23.616Z,943.89
2023-08-01T11:55:23.643Z,943.90
2023-08-01T11:56:23.573Z,943.95
2023-08-01T11:57:23.540Z,943.96
2023-08-01T11:58:23.585Z,943.84
2023-08-01T11:59:23.511Z,943.64
2023-08-01T12:00:23.548Z,943.44
2023-08-01T12:01:23.554Z,943.41
2023-08-01T12:02:23.576Z,943.58
2023-08-01T12:03:25.097Z,943.67
2023-08-01T12:04:23.460Z,943.71
2023-08-01T12:05:23.458Z,943.72
2023-08-01T12:06:23.415Z,943.76
2023-08-01T12:07:23.400Z,943.91
2023-08-01T12:08:23.383Z,943.93
2023-08-01T12:09:25.098Z,943.84
2023-08-01T12:10:23.357Z,943.73
2023-08-01T12:11:23.377Z,943.57
2023-08-01T12:12:23.323Z,943.52
2023-08-01T12:13:23.321Z,943.47
2023-08-01T12:14:23.364Z,943.45
2023-08-01T12:15:25.036Z,943.41
2023-08-01T12:16:23.273Z,943.58
2023-08-01T12:17:23.417Z,943.83
2023-08-01T12:18:44.680Z,943.83
2023-08-01T12:19:23.257Z,943.66
2023-08-01T12:20:23.273Z,943.55
2023-08-01T12:21:25.147Z,943.50
2023-08-01T12:22:23.195Z,943.51
2023-08-01T12:23:23.180Z,943.61
2023-08-01T12:24:23.220Z,943.69
2023-08-01T12:25:23.160Z,943.71
2023-08-01T12:26:23.165Z,943.67
2023-08-01T12:27:25.194Z,943.69
2023-08-01T12:28:23.126Z,943.71